Time;durP1;ratioP1;P1;durP2;ratioP2;P2;SDS_P1;SDS_P2;PMS_P1;PMS_P2;Temp;Humidity;BMP_temperature;BMP_pressure;BME280_temperature;BME280_humidity;BME280_pressure;Samples;Min_cycle;Max_cycle;Signal;HPM_P1;HPM_P2
2021/12/09 00:01:02;;;;;;;27.63;14.25;;;5.60;99.90;;;;;;5111675;28;20377;-58
2021/12/09 00:03:35;;;;;;;21.20;10.80;;;5.40;99.90;;;;;;5110886;28;20377;-55
2021/12/09 00:06:03;;;;;;;17.80;8.00;;;5.30;99.90;;;;;;5110469;28;20380;-57
2021/12/09 00:08:29;;;;;;;15.35;7.35;;;5.00;99.90;;;;;;5110885;28;20384;-57
2021/12/09 00:10:58;;;;;;;17.13;7.80;;;5.40;99.90;;;;;;5108837;28;20388;-59
2021/12/09 00:13:25;;;;;;;14.98;7.00;;;4.80;99.90;;;;;;5110525;28;20438;-57
2021/12/09 00:15:51;;;;;;;17.98;7.07;;;4.80;99.90;;;;;;5111912;28;20392;-59
2021/12/09 00:18:17;;;;;;;15.63;6.68;;;4.90;99.90;;;;;;5113414;27;20890;-57
2021/12/09 00:20:43;;;;;;;14.05;5.32;;;4.70;99.90;;;;;;5112052;27;20456;-57
2021/12/09 00:23:09;;;;;;;12.15;5.10;;;4.70;99.90;;;;;;5106482;27;20373;-57
2021/12/09 00:25:36;;;;;;;13.82;5.38;;;5.20;99.90;;;;;;5114643;27;20380;-57
2021/12/09 00:28:03;;;;;;;13.05;5.50;;;4.60;99.90;;;;;;5110886;28;20396;-57
2021/12/09 00:30:30;;;;;;;13.85;6.60;;;4.70;99.90;;;;;;5109715;27;20783;-57
2021/12/09 00:32:56;;;;;;;16.55;6.95;;;4.50;99.90;;;;;;5110043;27;20424;-57
2021/12/09 00:35:28;;;;;;;12.77;6.40;;;4.60;99.90;;;;;;5107751;27;20400;-57
2021/12/09 00:37:58;;;;;;;17.02;7.10;;;4.70;99.90;;;;;;5110772;27;20406;-61
2021/12/09 00:40:24;;;;;;;13.90;6.75;;;4.80;99.90;;;;;;5112616;27;20796;-57
2021/12/09 00:42:50;;;;;;;15.30;7.40;;;4.90;99.90;;;;;;5114498;27;20384;-56
2021/12/09 00:45:16;;;;;;;14.37;7.10;;;4.90;99.90;;;;;;5100885;27;20827;-57
2021/12/09 00:47:42;;;;;;;15.93;8.18;;;4.90;99.90;;;;;;5114391;27;20409;-56
2021/12/09 00:50:10;;;;;;;17.33;8.55;;;4.90;99.90;;;;;;5110001;27;20380;-56
2021/12/09 00:52:36;;;;;;;14.98;8.00;;;5.00;99.90;;;;;;5106223;27;20396;-56
2021/12/09 00:55:05;;;;;;;17.38;8.00;;;5.00;99.90;;;;;;5113928;27;20755;-56
2021/12/09 00:57:30;;;;;;;19.38;8.50;;;5.00;99.90;;;;;;5103031;27;20513;-56
2021/12/09 00:59:58;;;;;;;15.73;7.40;;;5.00;99.90;;;;;;5100994;28;20460;-56
2021/12/09 01:02:24;;;;;;;17.10;7.60;;;6.10;99.90;;;;;;5101492;28;20883;-58
2021/12/09 01:04:49;;;;;;;18.63;8.20;;;5.10;99.90;;;;;;5101721;28;20570;-56
2021/12/09 01:07:15;;;;;;;18.65;7.75;;;5.20;99.90;;;;;;5110298;28;20384;-56
2021/12/09 01:09:41;;;;;;;16.05;7.43;;;5.20;99.90;;;;;;5110106;28;20395;-56
2021/12/09 01:12:08;;;;;;;13.90;8.00;;;5.30;99.90;;;;;;5107603;28;20376;-56
2021/12/09 01:14:36;;;;;;;17.67;8.70;;;5.40;99.90;;;;;;5109321;28;20404;-56
2021/12/09 01:17:05;;;;;;;16.17;8.15;;;5.40;99.90;;;;;;5109891;28;20980;-57
2021/12/09 01:19:30;;;;;;;17.95;8.05;;;5.40;99.90;;;;;;5110401;28;20424;-56
2021/12/09 01:21:56;;;;;;;19.88;7.90;;;5.30;99.90;;;;;;5111040;28;20801;-56
2021/12/09 01:24:22;;;;;;;16.90;7.67;;;5.30;99.90;;;;;;5111491;28;20902;-56
2021/12/09 01:26:49;;;;;;;16.03;7.80;;;6.10;99.90;;;;;;5111666;28;20853;-56
2021/12/09 01:29:19;;;;;;;14.83;7.90;;;5.20;99.90;;;;;;5110576;28;20364;-55
2021/12/09 01:31:54;;;;;;;13.98;8.32;;;5.20;99.90;;;;;;5111018;28;20850;-55
2021/12/09 01:34:21;;;;;;;18.88;8.50;;;5.20;99.90;;;;;;5105886;28;20387;-55
2021/12/09 01:36:49;;;;;;;20.60;9.63;;;5.20;99.90;;;;;;5099383;28;20404;-56
2021/12/09 01:39:15;;;;;;;17.47;9.00;;;5.10;99.90;;;;;;5102763;28;20382;-56
2021/12/09 01:41:41;;;;;;;19.10;9.03;;;5.10;99.90;;;;;;5101742;28;20510;-56
2021/12/09 01:44:07;;;;;;;20.42;9.30;;;5.10;99.90;;;;;;5110574;28;20423;-55
2021/12/09 01:46:32;;;;;;;19.20;8.90;;;5.20;99.90;;;;;;5111016;28;20389;-56
2021/12/09 01:48:58;;;;;;;20.27;8.00;;;5.10;99.90;;;;;;5110302;28;20797;-56
2021/12/09 01:51:25;;;;;;;17.70;8.10;;;5.20;99.90;;;;;;5111066;28;20671;-56
2021/12/09 01:53:51;;;;;;;16.50;7.82;;;5.70;99.90;;;;;;5110973;28;20379;-56
2021/12/09 01:56:21;;;;;;;19.00;8.63;;;5.30;99.90;;;;;;5109202;28;20393;-55
2021/12/09 01:58:53;;;;;;;14.77;6.80;;;5.40;99.90;;;;;;5110900;28;20400;-56
2021/12/09 02:01:19;;;;;;;15.05;7.05;;;5.40;99.90;;;;;;5110361;28;20410;-56
2021/12/09 02:03:45;;;;;;;14.73;7.10;;;5.40;99.90;;;;;;5110551;28;20376;-56
2021/12/09 02:06:11;;;;;;;24.65;8.00;;;5.30;99.90;;;;;;5109028;28;20377;-56
2021/12/09 02:08:37;;;;;;;17.23;8.30;;;5.30;99.90;;;;;;5112024;27;20380;-56
2021/12/09 02:11:03;;;;;;;17.42;8.18;;;5.20;99.90;;;;;;5103499;27;20410;-55
2021/12/09 02:13:29;;;;;;;17.02;8.27;;;5.10;99.90;;;;;;5111294;27;20407;-55
2021/12/09 02:15:56;;;;;;;20.95;9.27;;;5.20;99.90;;;;;;5113603;27;20383;-60
2021/12/09 02:18:23;;;;;;;18.95;9.13;;;5.00;99.90;;;;;;5130660;27;20744;-55
2021/12/09 02:21:16;;;;;;;22.42;10.00;;;5.00;99.90;;;;;;5131186;27;20385;-55
2021/12/09 02:23:49;;;;;;;23.95;9.15;;;5.00;99.90;;;;;;5130941;27;20739;-56
2021/12/09 02:26:17;;;;;;;19.90;9.10;;;4.90;99.90;;;;;;5130416;27;20433;-56
2021/12/09 02:28:44;;;;;;;22.38;9.80;;;4.90;99.90;;;;;;5129565;27;20387;-55
2021/12/09 02:31:10;;;;;;;19.50;8.38;;;4.80;99.90;;;;;;5130030;27;20367;-55
2021/12/09 02:33:36;;;;;;;21.23;8.60;;;4.70;99.90;;;;;;5130675;27;20889;-55
2021/12/09 02:36:02;;;;;;;18.48;7.72;;;4.60;99.90;;;;;;5129757;27;20367;-56
2021/12/09 02:38:28;;;;;;;14.30;7.70;;;4.50;99.90;;;;;;5129181;27;20414;-55
2021/12/09 02:40:56;;;;;;;17.63;8.40;;;4.40;99.90;;;;;;5130430;27;20428;-59
2021/12/09 02:43:28;;;;;;;19.73;8.00;;;4.40;99.90;;;;;;5103767;27;20393;-55
2021/12/09 02:45:55;;;;;;;15.63;8.05;;;4.30;99.90;;;;;;5091816;28;20462;-57
2021/12/09 02:48:22;;;;;;;17.02;7.97;;;4.40;99.90;;;;;;5087779;28;20381;-56
2021/12/09 02:50:49;;;;;;;13.60;7.17;;;4.40;99.90;;;;;;5089561;28;20401;-55
2021/12/09 02:53:15;;;;;;;19.75;8.70;;;4.40;99.90;;;;;;5088933;28;20862;-55
2021/12/09 02:55:42;;;;;;;14.48;7.68;;;4.40;99.90;;;;;;5089834;28;20430;-55
2021/12/09 02:58:08;;;;;;;20.23;7.95;;;4.30;99.90;;;;;;5088761;28;20984;-56
2021/12/09 03:00:49;;;;;;;13.35;7.30;;;4.40;99.90;;;;;;5089208;28;20460;-55
2021/12/09 03:03:14;;;;;;;19.25;8.02;;;4.40;99.90;;;;;;5088845;28;20371;-55
2021/12/09 03:05:42;;;;;;;13.02;7.20;;;4.30;99.90;;;;;;5089646;28;20398;-56
2021/12/09 03:08:08;;;;;;;17.52;7.82;;;4.40;99.90;;;;;;5088814;28;20385;-56
2021/12/09 03:10:34;;;;;;;16.23;7.50;;;4.40;99.90;;;;;;5089607;28;20370;-55
2021/12/09 03:13:01;;;;;;;16.27;7.17;;;4.30;99.90;;;;;;5088491;28;20417;-57
2021/12/09 03:15:27;;;;;;;21.60;7.38;;;4.30;99.90;;;;;;5088248;28;20733;-55
2021/12/09 03:17:52;;;;;;;14.57;6.38;;;4.40;99.90;;;;;;5089404;28;20452;-56
2021/12/09 03:20:19;;;;;;;13.02;6.53;;;4.30;99.90;;;;;;5088871;28;20394;-55
2021/12/09 03:22:47;;;;;;;14.65;6.22;;;4.30;99.90;;;;;;5089531;28;20427;-55
2021/12/09 03:25:15;;;;;;;17.05;7.45;;;4.20;99.90;;;;;;5088725;28;20410;-55
2021/12/09 03:27:41;;;;;;;12.75;6.80;;;4.30;99.90;;;;;;5089945;28;20408;-55
2021/12/09 03:30:10;;;;;;;14.80;6.95;;;4.30;99.90;;;;;;5088565;28;20461;-56
2021/12/09 03:32:36;;;;;;;15.45;6.85;;;4.30;99.90;;;;;;5089517;28;20448;-55
2021/12/09 03:35:02;;;;;;;16.42;7.10;;;4.20;99.90;;;;;;5088429;28;20378;-56
2021/12/09 03:37:28;;;;;;;18.25;6.97;;;4.10;99.90;;;;;;5087805;28;20412;-55
2021/12/09 03:39:55;;;;;;;13.40;6.87;;;4.20;99.90;;;;;;5089001;28;20381;-56
2021/12/09 03:42:24;;;;;;;20.52;8.23;;;4.30;99.90;;;;;;5087558;28;20390;-55
2021/12/09 03:44:50;;;;;;;15.02;6.95;;;5.40;99.90;;;;;;5089203;28;20420;-55
2021/12/09 03:47:19;;;;;;;13.03;6.40;;;4.40;99.90;;;;;;5088168;28;20400;-55
2021/12/09 03:49:45;;;;;;;16.70;5.88;;;4.30;99.90;;;;;;5089298;28;20382;-57
2021/12/09 03:52:12;;;;;;;12.88;6.25;;;4.30;99.90;;;;;;5088509;28;20382;-55
2021/12/09 03:54:40;;;;;;;16.00;6.47;;;4.20;99.90;;;;;;5088950;28;20390;-55
2021/12/09 03:57:06;;;;;;;18.48;6.75;;;5.80;99.90;;;;;;5088043;28;20402;-56
2021/12/09 03:59:33;;;;;;;15.75;6.10;;;4.30;99.90;;;;;;5091307;28;20528;-56
2021/12/09 04:01:58;;;;;;;13.38;6.22;;;4.20;99.90;;;;;;5092169;28;20394;-60
2021/12/09 04:04:25;;;;;;;15.53;6.30;;;4.10;99.90;;;;;;5091485;28;20721;-57
2021/12/09 04:06:52;;;;;;;19.88;7.18;;;4.10;99.90;;;;;;5092919;28;20373;-56
2021/12/09 04:09:19;;;;;;;12.63;6.00;;;4.10;99.90;;;;;;5091827;28;20370;-56
2021/12/09 04:11:45;;;;;;;15.25;5.93;;;4.20;99.90;;;;;;5092661;28;20400;-57
2021/12/09 04:14:11;;;;;;;15.23;5.55;;;4.10;99.90;;;;;;5091870;28;20409;-56
2021/12/09 04:16:38;;;;;;;19.95;6.60;;;4.20;99.90;;;;;;5092487;28;20394;-57
2021/12/09 04:19:08;;;;;;;16.20;6.70;;;4.10;99.90;;;;;;5091751;28;20389;-56
2021/12/09 04:21:35;;;;;;;15.35;6.28;;;4.00;99.90;;;;;;5092579;28;20387;-56
2021/12/09 04:24:07;;;;;;;15.23;6.80;;;4.00;99.90;;;;;;5091598;28;20408;-58
2021/12/09 04:26:37;;;;;;;15.75;6.70;;;3.90;99.90;;;;;;5092379;28;20406;-56
2021/12/09 04:29:03;;;;;;;18.10;6.50;;;4.80;99.90;;;;;;5091691;28;20379;-57
2021/12/09 04:31:29;;;;;;;15.88;7.22;;;3.90;99.90;;;;;;5092437;28;20397;-56
2021/12/09 04:33:55;;;;;;;13.43;6.70;;;4.10;99.90;;;;;;5091973;28;20828;-56
2021/12/09 04:36:21;;;;;;;14.85;7.20;;;3.80;99.90;;;;;;5091478;28;20431;-56
2021/12/09 04:38:48;;;;;;;16.83;8.00;;;3.80;99.90;;;;;;5092118;28;20402;-56
2021/12/09 04:41:15;;;;;;;13.57;7.25;;;3.80;99.90;;;;;;5089982;28;20397;-56
2021/12/09 04:43:42;;;;;;;15.95;7.70;;;3.90;99.90;;;;;;5092095;28;20374;-58
2021/12/09 04:46:09;;;;;;;16.23;7.00;;;3.90;99.90;;;;;;5091364;28;20468;-56
2021/12/09 04:48:35;;;;;;;16.15;7.15;;;5.50;99.90;;;;;;5090463;28;20394;-56
2021/12/09 04:51:01;;;;;;;19.58;6.70;;;4.90;99.90;;;;;;5091626;28;20727;-60
2021/12/09 04:53:27;;;;;;;14.57;6.55;;;3.80;99.90;;;;;;5092046;28;20374;-56
2021/12/09 04:55:53;;;;;;;15.60;6.67;;;3.80;99.90;;;;;;5091917;28;20847;-56
2021/12/09 04:58:20;;;;;;;13.20;6.57;;;3.90;99.90;;;;;;5091004;28;20682;-57
2021/12/09 05:00:48;;;;;;;20.02;6.88;;;5.30;99.90;;;;;;5090662;28;20768;-56
2021/12/09 05:03:14;;;;;;;16.00;7.15;;;3.90;99.90;;;;;;5090344;28;20401;-56
2021/12/09 05:05:43;;;;;;;12.88;6.88;;;4.30;99.90;;;;;;5091308;28;20388;-56
2021/12/09 05:08:12;;;;;;;16.15;6.70;;;4.00;99.90;;;;;;5090947;28;20438;-56
2021/12/09 05:13:32;;;;;;;18.43;7.30;;;4.40;99.90;;;;;;5088422;28;20400;-57
2021/12/09 05:16:00;;;;;;;12.52;6.53;;;4.20;99.90;;;;;;5110586;28;20899;-60
2021/12/09 05:18:27;;;;;;;15.82;7.50;;;4.20;99.90;;;;;;5110788;28;20412;-58
2021/12/09 05:20:54;;;;;;;16.63;6.88;;;4.50;99.90;;;;;;5108732;28;20408;-56
2021/12/09 05:23:21;;;;;;;18.90;7.35;;;4.00;99.90;;;;;;5110912;28;20376;-56
2021/12/09 05:25:47;;;;;;;17.50;7.30;;;3.90;99.90;;;;;;5111408;28;20491;-57
2021/12/09 05:28:16;;;;;;;11.80;6.60;;;3.90;99.90;;;;;;5110980;28;20464;-56
2021/12/09 05:33:33;;;;;;;14.63;6.70;;;3.80;99.90;;;;;;5111441;28;20425;-56
2021/12/09 05:35:59;;;;;;;16.73;6.60;;;3.80;99.90;;;;;;5111199;28;20449;-61
2021/12/09 05:38:25;;;;;;;16.10;6.40;;;4.80;99.90;;;;;;5110713;28;20866;-56
2021/12/09 05:40:51;;;;;;;12.48;6.30;;;4.00;99.90;;;;;;5111197;28;20380;-56
2021/12/09 05:43:17;;;;;;;15.88;6.10;;;4.00;99.90;;;;;;5110350;28;20502;-57
2021/12/09 05:45:43;;;;;;;12.15;6.00;;;4.30;99.90;;;;;;5111019;28;20873;-56
2021/12/09 05:48:10;;;;;;;16.25;6.32;;;5.10;99.90;;;;;;5109753;28;20385;-57
2021/12/09 05:50:36;;;;;;;16.88;6.10;;;4.20;99.90;;;;;;5111588;28;20569;-56
2021/12/09 05:53:02;;;;;;;15.70;6.10;;;4.30;99.90;;;;;;5110346;28;20387;-57
2021/12/09 05:55:28;;;;;;;16.30;6.23;;;4.20;99.90;;;;;;5111367;28;20380;-57
2021/12/09 05:57:54;;;;;;;13.90;6.00;;;4.20;99.90;;;;;;5111020;28;20797;-56
2021/12/09 06:00:20;;;;;;;12.27;5.68;;;4.30;99.90;;;;;;5109972;28;20956;-57
2021/12/09 06:02:45;;;;;;;13.20;6.38;;;4.20;99.90;;;;;;5110605;28;20532;-57
2021/12/09 06:05:11;;;;;;;11.75;5.40;;;4.20;99.90;;;;;;5108856;28;20463;-56
2021/12/09 06:07:37;;;;;;;13.70;5.40;;;4.10;99.90;;;;;;5109776;28;20416;-56
2021/12/09 06:10:04;;;;;;;9.48;5.10;;;4.10;99.90;;;;;;5109332;28;20384;-57
2021/12/09 06:12:30;;;;;;;17.13;5.63;;;4.10;99.90;;;;;;5109494;28;20392;-56
2021/12/09 06:14:56;;;;;;;16.23;5.40;;;3.90;99.90;;;;;;5110318;28;20427;-57
2021/12/09 06:17:22;;;;;;;12.68;5.30;;;3.90;99.90;;;;;;5109165;28;20399;-57
2021/12/09 06:19:48;;;;;;;11.37;5.43;;;3.80;99.90;;;;;;5109933;28;20475;-56
2021/12/09 06:22:14;;;;;;;12.20;5.90;;;3.80;99.90;;;;;;5109167;28;20913;-56
2021/12/09 06:24:41;;;;;;;15.38;5.72;;;3.70;99.90;;;;;;5107509;28;20372;-57
2021/12/09 06:27:07;;;;;;;13.73;5.20;;;3.80;99.90;;;;;;5108990;28;20396;-57
2021/12/09 06:29:34;;;;;;;14.17;6.47;;;5.20;99.90;;;;;;5110078;28;20388;-57
2021/12/09 06:32:00;;;;;;;13.43;6.35;;;3.90;99.90;;;;;;5108315;28;20711;-60
2021/12/09 06:34:26;;;;;;;12.40;5.57;;;4.00;99.90;;;;;;5108375;28;20384;-57
2021/12/09 06:36:53;;;;;;;16.17;7.20;;;4.20;99.90;;;;;;5109981;28;20435;-57
2021/12/09 06:39:19;;;;;;;12.60;5.13;;;4.00;99.90;;;;;;5109502;28;20454;-57
2021/12/09 06:41:45;;;;;;;11.43;5.95;;;4.00;99.90;;;;;;5110342;28;20794;-57
2021/12/09 06:44:11;;;;;;;13.38;5.40;;;5.40;99.90;;;;;;5109796;28;20475;-57
2021/12/09 06:46:37;;;;;;;13.32;5.50;;;4.10;99.90;;;;;;5109783;28;20865;-57
2021/12/09 06:49:04;;;;;;;10.30;5.18;;;4.20;99.90;;;;;;5109142;28;20379;-59
2021/12/09 06:51:30;;;;;;;10.18;4.63;;;4.10;99.90;;;;;;5109818;28;20737;-57
2021/12/09 06:53:56;;;;;;;11.70;5.30;;;4.10;99.90;;;;;;5109411;28;20392;-57
2021/12/09 06:56:22;;;;;;;12.30;4.90;;;4.20;99.90;;;;;;5109142;28;20372;-58
2021/12/09 06:58:48;;;;;;;11.18;5.07;;;4.60;99.90;;;;;;5109998;28;20396;-56
2021/12/09 07:01:14;;;;;;;10.23;4.73;;;4.30;99.90;;;;;;5108709;28;20433;-57
2021/12/09 07:03:40;;;;;;;11.38;4.90;;;4.30;99.90;;;;;;5104927;28;20415;-57
2021/12/09 07:06:08;;;;;;;13.48;5.50;;;4.20;99.90;;;;;;5103606;28;20803;-56
2021/12/09 07:08:43;;;;;;;10.48;5.03;;;4.10;99.90;;;;;;5098800;28;20438;-56
2021/12/09 07:11:09;;;;;;;14.48;5.60;;;4.00;99.90;;;;;;5100412;28;20375;-57
2021/12/09 07:13:36;;;;;;;11.70;5.20;;;4.10;99.90;;;;;;5109523;28;20753;-58
2021/12/09 07:16:02;;;;;;;10.63;5.78;;;5.30;99.90;;;;;;5108797;28;20381;-61
2021/12/09 07:18:28;;;;;;;13.20;5.45;;;4.20;99.90;;;;;;5109202;28;20393;-57
2021/12/09 07:20:54;;;;;;;12.05;5.40;;;4.10;99.90;;;;;;5109215;28;20391;-56
2021/12/09 07:23:20;;;;;;;11.13;4.90;;;4.10;99.90;;;;;;5108662;28;20385;-56
2021/12/09 07:25:47;;;;;;;14.07;5.20;;;4.20;99.90;;;;;;5109188;28;20765;-58
2021/12/09 07:28:12;;;;;;;12.73;5.10;;;4.30;99.90;;;;;;5103953;28;20882;-57
2021/12/09 07:30:39;;;;;;;13.57;4.97;;;4.30;99.90;;;;;;5100554;28;20385;-57
2021/12/09 07:33:05;;;;;;;9.38;4.30;;;4.30;99.90;;;;;;5106845;28;20401;-57
2021/12/09 07:35:30;;;;;;;12.82;4.72;;;4.40;99.90;;;;;;5113536;28;20461;-57
2021/12/09 07:38:01;;;;;;;14.23;5.40;;;4.50;99.90;;;;;;5106648;28;20454;-56
2021/12/09 07:40:27;;;;;;;10.93;5.53;;;4.50;99.90;;;;;;5109659;28;20396;-57
2021/12/09 07:42:52;;;;;;;14.90;5.95;;;4.60;99.90;;;;;;5111349;28;20388;-57
2021/12/09 07:45:19;;;;;;;11.93;5.30;;;4.70;99.90;;;;;;5095176;28;20513;-57
2021/12/09 07:47:47;;;;;;;11.50;5.50;;;4.80;99.90;;;;;;5098162;28;20389;-56
2021/12/09 07:50:16;;;;;;;9.10;4.45;;;4.80;99.90;;;;;;5092041;28;20378;-57
2021/12/09 07:52:44;;;;;;;13.95;5.63;;;4.70;99.90;;;;;;5110889;28;20376;-57
2021/12/09 07:55:12;;;;;;;13.93;5.70;;;4.70;99.90;;;;;;5111727;28;20372;-58
2021/12/09 07:57:39;;;;;;;14.60;6.85;;;4.50;99.90;;;;;;5113038;28;20406;-57
2021/12/09 08:00:08;;;;;;;11.85;6.38;;;4.40;99.90;;;;;;5110608;28;20375;-58
2021/12/09 08:02:34;;;;;;;13.73;6.40;;;4.40;99.90;;;;;;5092245;28;20382;-58
2021/12/09 08:05:00;;;;;;;13.43;6.57;;;4.40;99.90;;;;;;5092368;28;20386;-61
2021/12/09 08:07:25;;;;;;;15.32;6.38;;;4.40;99.90;;;;;;5091992;28;20492;-56
2021/12/09 08:09:51;;;;;;;16.23;7.03;;;4.40;99.90;;;;;;5098175;28;20433;-56
2021/12/09 08:12:18;;;;;;;12.32;6.60;;;4.40;99.90;;;;;;5107302;28;20407;-56
2021/12/09 08:14:43;;;;;;;15.70;7.03;;;4.50;99.90;;;;;;5102823;28;20412;-56
2021/12/09 08:17:13;;;;;;;11.25;6.20;;;4.50;99.90;;;;;;5091341;28;20414;-56
2021/12/09 08:19:40;;;;;;;15.30;6.93;;;4.50;99.90;;;;;;5092111;28;20396;-57
2021/12/09 08:22:06;;;;;;;14.50;6.70;;;4.60;99.90;;;;;;5090943;28;20386;-57
2021/12/09 08:24:32;;;;;;;15.07;6.95;;;4.60;99.90;;;;;;5092056;28;20379;-56
2021/12/09 08:26:57;;;;;;;15.27;7.00;;;4.70;99.90;;;;;;5092589;28;20378;-57
2021/12/09 08:29:23;;;;;;;12.18;8.02;;;4.80;99.90;;;;;;5091322;28;20377;-57
2021/12/09 08:31:49;;;;;;;12.37;6.40;;;4.90;99.90;;;;;;5104838;28;20396;-56
2021/12/09 08:34:15;;;;;;;14.27;6.70;;;5.00;99.90;;;;;;5110258;28;20375;-57
2021/12/09 08:36:41;;;;;;;14.05;6.57;;;5.00;99.90;;;;;;5104493;27;20428;-56
2021/12/09 08:39:06;;;;;;;13.02;6.80;;;5.00;99.90;;;;;;5111366;28;20415;-57
2021/12/09 08:41:32;;;;;;;15.05;7.22;;;5.10;99.90;;;;;;5108427;28;20776;-56
2021/12/09 08:43:58;;;;;;;13.67;6.30;;;5.00;99.90;;;;;;5092111;28;20390;-56
2021/12/09 08:46:23;;;;;;;11.75;6.22;;;5.00;99.90;;;;;;5090751;28;20378;-56
2021/12/09 08:48:49;;;;;;;11.70;6.90;;;4.90;99.90;;;;;;5091640;28;20739;-57
2021/12/09 08:51:16;;;;;;;12.67;6.47;;;4.90;99.90;;;;;;5090976;28;20848;-57
2021/12/09 08:53:41;;;;;;;11.68;6.60;;;5.20;99.90;;;;;;5093018;28;20388;-56
2021/12/09 08:56:07;;;;;;;12.80;6.90;;;5.00;99.90;;;;;;5107855;28;20389;-57
2021/12/09 08:58:33;;;;;;;13.80;6.30;;;5.00;99.90;;;;;;5097155;28;20433;-57
2021/12/09 09:01:00;;;;;;;12.45;6.65;;;5.00;99.90;;;;;;5108507;28;20404;-57
2021/12/09 09:03:26;;;;;;;12.43;6.90;;;5.10;99.90;;;;;;5111279;28;20372;-57
2021/12/09 09:05:53;;;;;;;12.00;6.30;;;5.20;99.90;;;;;;5111441;28;20479;-57
2021/12/09 09:08:19;;;;;;;12.27;6.00;;;5.30;99.90;;;;;;5110701;28;20445;-56
2021/12/09 09:10:46;;;;;;;15.50;6.20;;;5.40;99.90;;;;;;5111228;28;20376;-54
2021/12/09 09:13:13;;;;;;;11.60;6.55;;;5.50;99.90;;;;;;5109000;28;20424;-55
2021/12/09 09:15:40;;;;;;;14.27;6.53;;;5.60;99.90;;;;;;5111043;28;20408;-56
2021/12/09 09:18:07;;;;;;;14.30;7.22;;;5.60;99.90;;;;;;5110409;28;20411;-55
2021/12/09 09:20:39;;;;;;;14.40;7.00;;;5.80;99.90;;;;;;5103588;28;20400;-55
2021/12/09 09:23:13;;;;;;;11.10;6.30;;;5.70;99.90;;;;;;5110204;28;20453;-59
2021/12/09 09:25:40;;;;;;;13.00;7.30;;;5.70;99.90;;;;;;5103173;28;20396;-56
2021/12/09 09:28:06;;;;;;;13.20;6.40;;;5.80;99.90;;;;;;5106642;28;20380;-58
2021/12/09 09:30:36;;;;;;;14.52;7.80;;;5.90;99.90;;;;;;5110437;28;20845;-54
2021/12/09 09:33:09;;;;;;;15.52;9.25;;;5.90;99.90;;;;;;5110221;28;20451;-59
2021/12/09 09:35:37;;;;;;;17.10;8.73;;;6.00;99.90;;;;;;5103667;27;20390;-55
2021/12/09 09:38:07;;;;;;;20.23;9.23;;;6.20;99.90;;;;;;5103300;27;20408;-58
2021/12/09 09:40:41;;;;;;;18.33;9.20;;;6.10;99.90;;;;;;5109929;27;20393;-55
2021/12/09 09:43:26;;;;;;;17.92;9.30;;;6.20;99.90;;;;;;5096043;28;20872;-55
2021/12/09 09:45:53;;;;;;;18.08;8.95;;;6.20;99.90;;;;;;5090174;28;20497;-55
2021/12/09 09:48:20;;;;;;;19.45;9.95;;;6.20;99.90;;;;;;5088792;28;20405;-55
2021/12/09 09:50:45;;;;;;;17.40;9.65;;;6.10;99.90;;;;;;5089754;28;20408;-55
2021/12/09 09:53:11;;;;;;;19.00;9.95;;;6.00;99.90;;;;;;5089238;28;20375;-54
2021/12/09 09:55:38;;;;;;;20.37;9.50;;;6.00;99.90;;;;;;5089861;28;20378;-55
2021/12/09 09:58:04;;;;;;;21.27;9.20;;;6.00;99.90;;;;;;5088968;28;20483;-59
2021/12/09 10:00:30;;;;;;;31.23;9.15;;;6.80;99.90;;;;;;5089374;28;20851;-54
2021/12/09 10:02:59;;;;;;;18.08;9.15;;;5.90;99.90;;;;;;5089932;28;20382;-54
2021/12/09 10:05:36;;;;;;;19.27;9.85;;;5.90;99.90;;;;;;5089479;28;20378;-55
2021/12/09 10:08:04;;;;;;;16.42;9.60;;;5.80;99.90;;;;;;5090082;28;20385;-54
2021/12/09 10:10:30;;;;;;;18.50;9.32;;;5.80;99.90;;;;;;5089724;28;20723;-56
2021/12/09 10:13:06;;;;;;;22.08;9.70;;;5.80;99.90;;;;;;5093375;28;20403;-55
2021/12/09 10:15:41;;;;;;;19.52;9.70;;;5.70;99.90;;;;;;5110412;28;20810;-56
2021/12/09 10:18:08;;;;;;;17.17;9.60;;;5.70;99.90;;;;;;5109470;28;20621;-55
2021/12/09 10:20:50;;;;;;;21.20;10.30;;;5.80;99.90;;;;;;5110089;28;20427;-54
2021/12/09 10:23:22;;;;;;;18.60;11.17;;;5.90;99.90;;;;;;5109224;28;20487;-55
2021/12/09 10:26:11;;;;;;;22.52;10.90;;;6.00;99.90;;;;;;5110376;28;20378;-54
2021/12/09 10:28:40;;;;;;;21.98;10.23;;;6.00;99.90;;;;;;5109989;28;20376;-55
2021/12/09 10:31:15;;;;;;;20.52;10.02;;;6.00;99.90;;;;;;5108606;27;20457;-59
2021/12/09 10:34:07;;;;;;;19.27;9.00;;;5.90;99.90;;;;;;5113583;27;20749;-57
2021/12/09 10:36:46;;;;;;;18.25;9.60;;;5.70;99.90;;;;;;5130294;27;20890;-57
2021/12/09 10:39:36;;;;;;;16.03;9.60;;;5.50;99.90;;;;;;5129387;27;20402;-57
2021/12/09 10:42:12;;;;;;;19.77;9.50;;;5.60;99.90;;;;;;5129223;27;20876;-57
2021/12/09 10:44:43;;;;;;;19.23;9.70;;;5.60;99.90;;;;;;5130426;27;20478;-57
2021/12/09 10:47:15;;;;;;;19.90;11.43;;;5.80;99.90;;;;;;5128274;27;20447;-57
2021/12/09 10:49:47;;;;;;;21.05;10.40;;;5.60;99.90;;;;;;5130560;27;20716;-57
2021/12/09 10:52:37;;;;;;;19.92;9.70;;;5.50;99.90;;;;;;5129542;27;20385;-59
2021/12/09 10:55:18;;;;;;;20.63;10.80;;;5.60;99.90;;;;;;5130519;27;20387;-58
2021/12/09 10:57:44;;;;;;;18.48;10.75;;;5.60;99.90;;;;;;5130468;27;20417;-57
2021/12/09 11:00:32;;;;;;;16.92;10.30;;;5.60;99.90;;;;;;5129893;27;20843;-57
2021/12/09 11:03:05;;;;;;;21.83;11.70;;;5.70;99.90;;;;;;5130413;28;20461;-55
2021/12/09 11:05:34;;;;;;;22.77;12.13;;;5.90;99.90;;;;;;5129963;28;20496;-55
2021/12/09 11:08:23;;;;;;;23.80;11.98;;;6.00;99.90;;;;;;5130298;27;20383;-56
2021/12/09 11:10:56;;;;;;;23.77;10.87;;;6.30;99.90;;;;;;5134208;27;20591;-57
2021/12/09 11:13:21;;;;;;;23.08;12.38;;;6.30;99.90;;;;;;5125438;27;20405;-55
2021/12/09 11:15:56;;;;;;;20.60;11.80;;;6.50;99.90;;;;;;5113669;27;20776;-56
2021/12/09 11:18:36;;;;;;;21.27;10.70;;;6.50;99.90;;;;;;5112762;28;20439;-55
2021/12/09 11:21:10;;;;;;;26.17;12.40;;;6.30;99.90;;;;;;5113830;28;20376;-55
2021/12/09 11:23:42;;;;;;;22.97;12.97;;;6.20;99.90;;;;;;5113461;28;20392;-55
2021/12/09 11:26:27;;;;;;;32.33;14.38;;;6.20;99.90;;;;;;5112795;28;20381;-59
2021/12/09 11:28:59;;;;;;;20.75;12.18;;;6.30;99.90;;;;;;5113371;28;20734;-55
2021/12/09 11:31:30;;;;;;;29.77;14.20;;;6.40;99.90;;;;;;5112943;28;20460;-56
2021/12/09 11:34:01;;;;;;;21.50;11.80;;;6.40;99.90;;;;;;5113262;28;20364;-55
2021/12/09 11:36:49;;;;;;;18.65;10.60;;;6.30;99.90;;;;;;5112517;28;20869;-57
2021/12/09 11:39:23;;;;;;;28.10;13.05;;;5.90;99.90;;;;;;5112657;28;20469;-55
2021/12/09 11:41:49;;;;;;;22.77;11.65;;;5.90;99.90;;;;;;5113330;28;20384;-56
2021/12/09 11:44:15;;;;;;;23.05;12.50;;;6.10;99.90;;;;;;5112403;28;20392;-55
2021/12/09 11:46:43;;;;;;;23.10;11.95;;;6.10;99.90;;;;;;5113148;28;20433;-55
2021/12/09 11:49:10;;;;;;;21.38;12.73;;;6.30;99.90;;;;;;5112280;28;20432;-59
2021/12/09 11:51:36;;;;;;;21.63;11.55;;;6.40;99.90;;;;;;5113180;28;20375;-56
2021/12/09 11:54:05;;;;;;;21.95;11.00;;;6.60;99.90;;;;;;5112641;28;20795;-55
2021/12/09 11:56:40;;;;;;;17.27;10.40;;;6.50;99.90;;;;;;5112245;28;20376;-55
2021/12/09 12:11:28;;;;;;;16.60;8.80;;;6.20;99.90;;;;;;5112549;28;20385;-56
2021/12/09 12:14:01;;;;;;;17.93;8.50;;;6.10;99.90;;;;;;5107140;28;20510;-56
2021/12/09 12:16:55;;;;;;;14.73;8.38;;;6.20;99.90;;;;;;5111490;28;20469;-56
2021/12/09 12:19:54;;;;;;;17.33;7.93;;;6.20;99.90;;;;;;5111269;28;20463;-55
2021/12/09 12:28:45;;;;;;;20.15;9.10;;;6.00;99.90;;;;;;5111439;28;20387;-55
2021/12/09 12:31:55;;;;;;;21.17;9.13;;;6.10;99.90;;;;;;5111574;28;20372;-55
2021/12/09 12:40:25;;;;;;;23.58;9.32;;;5.80;99.90;;;;;;5130276;27;20483;-56
2021/12/09 12:43:08;;;;;;;18.40;8.10;;;6.00;99.90;;;;;;5112078;28;20475;-55
2021/12/09 12:53:54;;;;;;;19.13;8.50;;;6.40;99.90;;;;;;5111958;28;20850;-55
2021/12/09 12:56:24;;;;;;;25.27;9.60;;;6.30;99.90;;;;;;5111140;28;20376;-55
2021/12/09 12:59:23;;;;;;;16.27;6.75;;;6.10;99.90;;;;;;5111049;28;20969;-56
2021/12/09 13:02:10;;;;;;;29.27;11.30;;;5.80;99.90;;;;;;5111812;28;20794;-56
2021/12/09 13:07:19;;;;;;;18.52;9.40;;;5.80;99.90;;;;;;5110760;28;20387;-59
2021/12/09 13:09:54;;;;;;;20.73;10.30;;;5.90;99.90;;;;;;5110091;28;20776;-56
2021/12/09 13:12:44;;;;;;;20.92;8.50;;;5.90;99.90;;;;;;5110130;28;20472;-55
2021/12/09 13:15:33;;;;;;;16.20;8.00;;;5.60;99.90;;;;;;5088927;28;20494;-59
2021/12/09 13:18:03;;;;;;;14.18;6.40;;;5.60;99.90;;;;;;5091193;28;20883;-55
2021/12/09 13:20:36;;;;;;;13.95;7.20;;;5.70;99.90;;;;;;5088992;28;20400;-55
2021/12/09 13:23:22;;;;;;;18.90;6.60;;;5.70;99.90;;;;;;5090996;28;20382;-56
2021/12/09 13:26:09;;;;;;;18.60;7.68;;;5.60;99.90;;;;;;5090993;28;20402;-55
2021/12/09 13:28:50;;;;;;;19.88;6.70;;;5.60;99.90;;;;;;5090234;28;20477;-56
2021/12/09 13:31:50;;;;;;;16.77;8.55;;;5.80;99.90;;;;;;5089227;28;20508;-56
2021/12/09 13:34:27;;;;;;;12.80;6.00;;;5.80;99.90;;;;;;5089954;28;20595;-56
2021/12/09 13:37:28;;;;;;;15.93;6.68;;;5.70;99.90;;;;;;5090482;28;20859;-56